Accueil
METAR-TAF:

METAR-TAF

Aéroports :

Aéroport international de Bagdad

Bagdad, Irak

latitude: 33-15-45N, longitude: 44-14-04E, altitude: 35 m

Observation

Le bulletin a été fait il y a 29 minutes, à 15:00 UTC
Vent 11 kt de est/nord-est
Température 21°C
Humidité 73%
Pression 1011 hPa
Visibilité: 3000 m
Quelques nuages à une hauteur de 2500 ft, Cumulonimbus.
Nuages fragmentés à une hauteur de 3000 ft
orage

METAR: ORBI 211500Z 06011KT 8000 3000 TS FEW025CB BKN030 21/16 Q1011 NOSIG

Heure: 18:29 (15:29 UTC)

Prévision

Le bulletin a été fait il y a 5 heures et 29 minutes, à 10:00 UTC
Prévision valable du 21 à 12 UTC au 22 à 12 UTC
Vent 20 kt de est/sud-est
Visibilité: 4000 m
Quelques nuages à une hauteur de 2500 ft, Cumulonimbus.
Nuages fragmentés à une hauteur de 3000 ft
Evoluant progressivement
du 21 à 20 UTC au 21 à 22 UTC
Visibilité: 6000 m

TAF: ORBI 211000Z 2112/2212 12020KT 4000 TSSHRA FEW025CB BKN030 BECMG 2120/2122 6000

Observations et prévisions météorologiques de plus de 4000 aéroports (messages METAR et TAF).

Les stations disponibles sont représentées par des disques jaunes et rouges sur la carte.

Passer la souris dessus pour voir le nom de la station.

Cliquer dessus pour voir les observations et prévisions météorologiques.

Pour changer de carte: cliquez sur les boutons verts avec une croix noire pour zoomer, sur le bouton vert avec un tiret pour effectuer un zoom arrière, ou sur les flèches vertes pour les cartes adjacentes.


METAR-TAF: